createdAt,value
2022-09-28T00:01:57.438Z,1.60
2022-09-28T00:04:24.442Z,1.65
2022-09-28T00:06:51.293Z,1.60
2022-09-28T00:09:18.341Z,1.35
2022-09-28T00:11:46.130Z,1.98
2022-09-28T00:14:13.179Z,1.50
2022-09-28T00:16:42.127Z,2.17
2022-09-28T00:19:09.652Z,1.75
2022-09-28T00:21:37.870Z,2.42
2022-09-28T00:24:22.981Z,1.60
2022-09-28T00:26:56.901Z,1.60
2022-09-28T00:29:28.055Z,1.85
2022-09-28T00:32:00.608Z,1.50
2022-09-28T00:34:27.918Z,1.38
2022-09-28T00:36:54.833Z,1.60
2022-09-28T00:39:21.768Z,1.20
2022-09-28T00:41:48.808Z,1.17
2022-09-28T00:44:30.875Z,1.73
2022-09-28T00:47:19.565Z,1.55
2022-09-28T00:50:09.888Z,2.05
2022-09-28T00:52:59.462Z,2.15
2022-09-28T00:55:55.384Z,1.42
2022-09-28T00:58:25.545Z,1.45
2022-09-28T01:03:19.826Z,1.30
2022-09-28T01:05:46.970Z,1.50
2022-09-28T01:08:14.395Z,1.85
2022-09-28T01:10:43.572Z,1.75
2022-09-28T01:13:11.742Z,1.85
2022-09-28T01:16:01.979Z,1.45
2022-09-28T01:18:46.399Z,1.65
2022-09-28T01:21:23.374Z,1.40
2022-09-28T01:24:11.049Z,1.30
2022-09-28T01:26:47.021Z,1.40
2022-09-28T01:29:28.894Z,1.40
2022-09-28T01:32:03.763Z,1.30
2022-09-28T01:34:51.605Z,1.77
2022-09-28T01:37:19.723Z,1.42
2022-09-28T01:39:47.598Z,1.50
2022-09-28T01:42:23.601Z,1.35
2022-09-28T01:44:51.144Z,1.58
2022-09-28T01:47:20.037Z,1.25
2022-09-28T01:49:49.396Z,1.75
2022-09-28T01:52:48.893Z,1.73
2022-09-28T01:55:32.976Z,1.55
2022-09-28T01:58:21.461Z,2.00
2022-09-28T02:00:52.122Z,1.67
2022-09-28T02:03:22.706Z,1.60
2022-09-28T02:06:00.989Z,1.50
2022-09-28T02:08:29.907Z,1.45
2022-09-28T02:11:06.321Z,1.35
2022-09-28T02:13:35.697Z,1.98
2022-09-28T02:16:12.085Z,1.70
2022-09-28T02:18:39.057Z,1.50
2022-09-28T02:21:48.000Z,1.55
2022-09-28T02:24:21.431Z,1.73
2022-09-28T02:26:49.598Z,1.77
2022-09-28T02:29:17.047Z,1.58
2022-09-28T02:31:44.201Z,1.83
2022-09-28T02:34:11.344Z,1.90
2022-09-28T02:36:38.254Z,1.52
2022-09-28T02:39:05.410Z,1.70
2022-09-28T02:41:38.334Z,1.52
2022-09-28T02:44:42.767Z,1.75
2022-09-28T02:47:15.577Z,1.63
2022-09-28T02:50:06.512Z,1.50
2022-09-28T02:52:55.049Z,1.80
2022-09-28T02:55:27.487Z,1.52
2022-09-28T02:58:15.833Z,1.40
2022-09-28T03:00:56.608Z,1.42
2022-09-28T03:03:34.148Z,1.52
2022-09-28T03:06:21.459Z,1.45
2022-09-28T03:09:18.387Z,1.50
2022-09-28T03:11:51.311Z,1.52
2022-09-28T03:14:18.914Z,1.75
2022-09-28T03:16:51.556Z,1.88
2022-09-28T03:19:21.638Z,1.70
2022-09-28T03:21:49.424Z,1.77
2022-09-28T03:24:16.426Z,1.65
2022-09-28T03:26:43.286Z,1.60
2022-09-28T03:29:11.806Z,1.52
2022-09-28T03:31:39.490Z,1.50
2022-09-28T03:34:06.584Z,1.70
2022-09-28T03:36:33.486Z,1.50
2022-09-28T03:39:00.392Z,1.50
2022-09-28T03:41:30.165Z,1.40
2022-09-28T03:43:57.058Z,1.48
2022-09-28T03:46:26.441Z,1.63
2022-09-28T03:48:58.424Z,1.58
2022-09-28T03:51:26.026Z,1.40
2022-09-28T03:53:53.698Z,1.50
2022-09-28T03:56:21.097Z,1.50
2022-09-28T03:58:48.134Z,1.67
2022-09-28T04:01:18.597Z,1.55
2022-09-28T04:03:47.231Z,1.48
2022-09-28T04:06:14.245Z,1.38
2022-09-28T04:08:41.177Z,1.50
2022-09-28T04:11:08.923Z,2.00
2022-09-28T04:13:37.169Z,1.30
2022-09-28T04:16:06.121Z,1.98
2022-09-28T04:18:35.289Z,1.75
2022-09-28T04:21:20.713Z,1.55
2022-09-28T04:23:53.705Z,1.38
2022-09-28T04:26:24.214Z,1.70
2022-09-28T04:29:09.608Z,1.67
2022-09-28T04:31:45.858Z,2.20
2022-09-28T04:34:17.301Z,1.65
2022-09-28T04:36:45.084Z,1.50
2022-09-28T04:39:12.882Z,1.83
2022-09-28T04:41:41.513Z,1.77
2022-09-28T04:44:08.887Z,1.50
2022-09-28T04:46:35.889Z,1.52
2022-09-28T04:49:24.542Z,1.40
2022-09-28T04:51:56.969Z,1.70
2022-09-28T04:54:23.888Z,1.33
2022-09-28T04:56:51.271Z,1.38
2022-09-28T04:59:18.310Z,1.50
2022-09-28T05:01:45.352Z,1.92
2022-09-28T05:04:31.207Z,1.77
2022-09-28T05:07:09.800Z,2.00
2022-09-28T05:09:38.551Z,1.60
2022-09-28T05:12:05.808Z,1.35
2022-09-28T05:14:32.755Z,1.75
2022-09-28T05:16:59.938Z,1.90
2022-09-28T05:19:26.897Z,1.65
2022-09-28T05:22:00.608Z,1.58
2022-09-28T05:24:27.550Z,1.65
2022-09-28T05:26:54.860Z,1.70
2022-09-28T05:29:21.911Z,1.67
2022-09-28T05:32:07.437Z,2.00
2022-09-28T05:34:55.714Z,1.10
2022-09-28T05:37:27.294Z,1.80
2022-09-28T05:39:54.193Z,1.63
2022-09-28T05:42:21.171Z,2.55
2022-09-28T05:44:48.085Z,1.65
2022-09-28T05:47:14.951Z,2.25
2022-09-28T05:49:43.790Z,1.83
2022-09-28T05:52:11.970Z,1.70
2022-09-28T05:54:39.045Z,1.80
2022-09-28T05:57:07.093Z,2.00
2022-09-28T05:59:35.266Z,2.25
2022-09-28T06:02:03.173Z,1.73
2022-09-28T06:04:30.210Z,2.35
2022-09-28T06:06:57.307Z,1.83
2022-09-28T06:09:25.987Z,1.90
2022-09-28T06:11:57.725Z,1.80
2022-09-28T06:14:39.045Z,1.90
2022-09-28T06:17:06.096Z,2.08
2022-09-28T06:19:33.073Z,1.83
2022-09-28T06:22:25.118Z,1.75
2022-09-28T06:25:06.963Z,2.28
2022-09-28T06:27:34.588Z,1.90
2022-09-28T06:30:02.392Z,2.38
2022-09-28T06:32:29.958Z,2.42
2022-09-28T06:34:57.405Z,1.83
2022-09-28T06:37:27.300Z,1.83
2022-09-28T06:39:55.198Z,2.10
2022-09-28T06:42:24.401Z,2.42
2022-09-28T06:45:20.104Z,2.78
2022-09-28T06:48:09.434Z,2.38
2022-09-28T06:50:40.609Z,3.60
2022-09-28T06:53:14.552Z,3.30
2022-09-28T06:55:50.050Z,4.10
2022-09-28T06:58:19.698Z,4.75
2022-09-28T07:00:47.477Z,2.55
2022-09-28T07:03:19.311Z,2.40
2022-09-28T07:06:04.691Z,2.30
2022-09-28T07:09:05.065Z,2.17
2022-09-28T07:11:44.840Z,2.85
2022-09-28T07:14:41.041Z,1.85
2022-09-28T07:17:14.187Z,2.60
2022-09-28T07:19:42.776Z,2.13
2022-09-28T07:22:16.125Z,2.45
2022-09-28T07:24:46.573Z,2.42
2022-09-28T07:27:31.959Z,2.80
2022-09-28T07:30:14.798Z,2.63
2022-09-28T07:33:20.149Z,2.42
2022-09-28T07:35:55.907Z,2.20
2022-09-28T07:38:30.271Z,2.85
2022-09-28T07:41:12.235Z,2.10
2022-09-28T07:43:50.250Z,1.98
2022-09-28T07:46:17.793Z,2.75
2022-09-28T07:48:55.056Z,2.67
2022-09-28T07:51:31.043Z,2.80
2022-09-28T07:54:17.889Z,2.17
2022-09-28T07:57:04.108Z,2.35
2022-09-28T08:02:50.227Z,2.95
2022-09-28T08:05:21.925Z,2.30
2022-09-28T08:07:48.917Z,2.70
2022-09-28T08:10:17.409Z,2.10
2022-09-28T08:13:07.554Z,2.70
2022-09-28T08:15:55.005Z,3.10
2022-09-28T08:18:32.576Z,2.72
2022-09-28T08:21:20.483Z,2.88
2022-09-28T08:23:47.813Z,3.13
2022-09-28T08:26:15.799Z,2.90
2022-09-28T08:28:45.254Z,2.47
2022-09-28T08:31:31.217Z,2.65
2022-09-28T08:34:13.595Z,3.03
2022-09-28T08:37:04.040Z,3.03
2022-09-28T08:39:49.467Z,2.75
2022-09-28T08:42:36.131Z,2.35
2022-09-28T08:45:27.588Z,3.28
2022-09-28T08:48:51.739Z,3.15
2022-09-28T08:51:35.841Z,3.38
2022-09-28T08:54:26.166Z,3.00
2022-09-28T08:57:16.580Z,2.83
2022-09-28T09:00:12.252Z,3.00
2022-09-28T09:02:40.592Z,3.08
2022-09-28T09:05:16.308Z,2.63
2022-09-28T09:08:33.433Z,3.53
2022-09-28T09:11:12.347Z,2.63
2022-09-28T09:14:20.013Z,2.78
2022-09-28T09:16:59.985Z,3.30
2022-09-28T09:20:53.477Z,3.30
2022-09-28T09:23:57.814Z,3.35
2022-09-28T09:26:39.683Z,3.60
2022-09-28T09:29:30.177Z,3.47
2022-09-28T09:32:05.650Z,3.15
2022-09-28T09:34:53.243Z,3.70
2022-09-28T09:38:06.547Z,2.97
2022-09-28T09:41:05.737Z,2.80
2022-09-28T09:44:18.591Z,2.80
2022-09-28T09:47:15.073Z,3.10
2022-09-28T09:49:50.693Z,3.03
2022-09-28T09:52:17.553Z,2.50
2022-09-28T09:55:19.355Z,2.10
2022-09-28T09:57:54.299Z,1.63
2022-09-28T10:00:31.967Z,2.38
2022-09-28T10:03:30.754Z,2.35
2022-09-28T10:06:21.918Z,2.65
2022-09-28T10:08:50.510Z,2.50
2022-09-28T10:11:26.954Z,1.90
2022-09-28T10:13:55.583Z,2.25
2022-09-28T10:19:21.418Z,2.25
2022-09-28T10:22:06.783Z,1.80
2022-09-28T10:24:36.021Z,2.10
2022-09-28T10:27:17.218Z,1.77
2022-09-28T10:30:10.053Z,2.00
2022-09-28T10:32:41.553Z,1.77
2022-09-28T10:35:28.457Z,1.92
2022-09-28T10:38:13.197Z,1.77
2022-09-28T10:40:46.881Z,1.83
2022-09-28T10:43:38.606Z,1.60
2022-09-28T10:46:15.136Z,1.80
2022-09-28T10:48:50.156Z,1.10
2022-09-28T10:51:17.408Z,2.28
2022-09-28T10:54:00.846Z,1.23
2022-09-28T10:56:42.862Z,1.83
2022-09-28T10:59:23.187Z,1.20
2022-09-28T11:02:02.505Z,1.15
2022-09-28T11:04:36.172Z,1.30
2022-09-28T11:07:03.069Z,0.85
2022-09-28T11:09:31.722Z,1.13
2022-09-28T11:12:05.982Z,1.17
2022-09-28T11:17:18.461Z,1.13
2022-09-28T11:19:47.035Z,1.00
2022-09-28T11:22:28.859Z,1.33
2022-09-28T11:25:30.303Z,1.35
2022-09-28T11:27:59.936Z,1.00
2022-09-28T11:30:33.731Z,1.15
2022-09-28T11:33:45.171Z,0.80
2022-09-28T11:36:48.391Z,0.90
2022-09-28T11:39:39.307Z,0.90
2022-09-28T11:42:06.413Z,1.00
2022-09-28T11:44:47.084Z,0.90
2022-09-28T11:47:42.254Z,0.97
2022-09-28T11:50:17.870Z,0.80
2022-09-28T11:52:47.084Z,0.90
2022-09-28T11:55:21.963Z,0.90
2022-09-28T11:58:12.155Z,1.00
2022-09-28T12:00:44.495Z,1.33
2022-09-28T12:03:23.258Z,0.90
2022-09-28T12:05:55.846Z,1.00
2022-09-28T12:08:28.679Z,0.90
2022-09-28T12:11:17.521Z,1.00
2022-09-28T12:14:04.854Z,1.00
2022-09-28T12:19:40.204Z,1.00
2022-09-28T12:22:40.957Z,1.10
2022-09-28T12:25:13.185Z,1.30
2022-09-28T12:28:01.134Z,1.10
2022-09-28T12:30:30.878Z,1.00
2022-09-28T12:38:29.348Z,0.80
2022-09-28T12:41:15.371Z,1.27
2022-09-28T12:43:54.774Z,0.80
2022-09-28T12:46:37.101Z,1.10
2022-09-28T12:52:47.929Z,1.05
2022-09-28T12:55:19.654Z,1.00
2022-09-28T12:58:20.211Z,1.00
2022-09-28T13:00:59.878Z,1.10
2022-09-28T13:03:56.743Z,1.17
2022-09-28T13:06:32.798Z,0.88
2022-09-28T13:09:26.679Z,1.00
2022-09-28T13:12:28.235Z,1.00
2022-09-28T13:15:27.456Z,0.90
2022-09-28T13:17:56.709Z,1.10
2022-09-28T13:20:35.921Z,0.90
2022-09-28T13:23:39.833Z,1.20
2022-09-28T13:26:14.939Z,1.00
2022-09-28T13:28:43.182Z,1.00
2022-09-28T13:31:10.199Z,0.95
2022-09-28T13:33:38.731Z,1.10
2022-09-28T13:36:28.727Z,1.10
2022-09-28T13:38:56.659Z,1.08
2022-09-28T13:41:29.196Z,1.00
2022-09-28T13:44:04.844Z,1.15
2022-09-28T13:46:46.812Z,1.10
2022-09-28T13:49:18.494Z,1.05
2022-09-28T13:51:55.425Z,0.80
2022-09-28T13:54:46.963Z,1.20
2022-09-28T13:57:35.027Z,0.90
2022-09-28T14:00:31.283Z,1.05
2022-09-28T14:03:04.399Z,1.08
2022-09-28T14:05:56.431Z,0.75
2022-09-28T14:08:34.239Z,0.70
2022-09-28T14:11:34.380Z,1.08
2022-09-28T14:14:02.919Z,0.90
2022-09-28T14:16:33.672Z,0.82
2022-09-28T14:19:08.546Z,1.40
2022-09-28T14:22:12.767Z,0.80
2022-09-28T14:25:01.030Z,1.00
2022-09-28T14:27:32.600Z,0.80
2022-09-28T14:30:44.898Z,0.85
2022-09-28T14:33:20.927Z,0.80
2022-09-28T14:35:54.096Z,0.90
2022-09-28T14:38:40.631Z,0.80
2022-09-28T14:41:17.775Z,0.90
2022-09-28T14:44:12.991Z,0.80
2022-09-28T14:46:40.709Z,0.80
2022-09-28T14:49:19.842Z,0.80
2022-09-28T14:51:58.762Z,0.88
2022-09-28T14:54:27.430Z,0.97
2022-09-28T14:56:54.394Z,0.77
2022-09-28T14:59:36.248Z,1.10
2022-09-28T15:02:15.218Z,0.93
2022-09-28T15:04:50.880Z,1.00
2022-09-28T15:07:21.954Z,0.82
2022-09-28T15:09:50.601Z,0.85
2022-09-28T15:12:43.791Z,1.00
2022-09-28T15:15:24.877Z,0.80
2022-09-28T15:18:00.558Z,0.65
2022-09-28T15:20:32.447Z,0.85
2022-09-28T15:22:59.774Z,0.98
2022-09-28T15:25:28.438Z,0.80
2022-09-28T15:28:17.230Z,1.02
2022-09-28T15:30:44.152Z,0.82
2022-09-28T15:33:42.601Z,0.80
2022-09-28T15:36:10.107Z,0.80
2022-09-28T15:38:36.966Z,0.88
2022-09-28T15:41:04.855Z,0.90
2022-09-28T15:43:33.309Z,1.17
2022-09-28T15:46:18.423Z,0.75
2022-09-28T15:48:53.080Z,0.88
2022-09-28T15:51:21.473Z,0.90
2022-09-28T15:53:51.129Z,0.80
2022-09-28T15:56:18.012Z,1.13
2022-09-28T15:58:45.038Z,0.90
2022-09-28T16:01:36.691Z,0.80
2022-09-28T16:04:36.777Z,0.90
2022-09-28T16:07:12.638Z,1.00
2022-09-28T16:10:02.694Z,1.10
2022-09-28T16:12:37.152Z,0.93
2022-09-28T16:15:27.573Z,0.90
2022-09-28T16:17:56.249Z,1.00
2022-09-28T16:20:29.544Z,1.10
2022-09-28T16:22:57.871Z,0.90
2022-09-28T16:25:25.932Z,1.40
2022-09-28T16:27:53.766Z,2.22
2022-09-28T16:30:27.058Z,1.30
2022-09-28T16:33:05.680Z,1.80
2022-09-28T16:35:35.626Z,2.30
2022-09-28T16:38:15.916Z,2.22
2022-09-28T16:40:50.223Z,2.85
2022-09-28T16:43:29.559Z,2.30
2022-09-28T16:45:58.444Z,2.58
2022-09-28T16:48:32.181Z,2.67
2022-09-28T16:50:59.222Z,1.92
2022-09-28T16:53:45.337Z,1.40
2022-09-28T16:56:12.323Z,1.35
2022-09-28T16:58:39.302Z,1.52
2022-09-28T17:01:09.467Z,1.65
2022-09-28T17:03:36.546Z,1.23
2022-09-28T17:06:04.722Z,1.50
2022-09-28T17:08:33.831Z,1.40
2022-09-28T17:11:24.250Z,1.37
2022-09-28T17:13:51.938Z,1.25
2022-09-28T17:16:32.270Z,1.30
2022-09-28T17:19:21.388Z,1.38
2022-09-28T17:21:48.880Z,1.20
2022-09-28T17:24:16.139Z,1.20
2022-09-28T17:26:44.413Z,2.10
2022-09-28T17:29:14.821Z,1.02
2022-09-28T17:31:43.179Z,1.02
2022-09-28T17:34:11.218Z,0.93
2022-09-28T17:36:38.346Z,1.20
2022-09-28T17:39:06.407Z,0.95
2022-09-28T17:41:34.326Z,1.20
2022-09-28T17:44:03.080Z,1.05
2022-09-28T17:46:40.864Z,1.20
2022-09-28T17:49:10.015Z,1.15
2022-09-28T17:51:40.188Z,1.40
2022-09-28T17:54:08.211Z,1.10
2022-09-28T17:56:35.505Z,1.75
2022-09-28T17:59:06.941Z,1.33
2022-09-28T18:01:34.937Z,1.40
2022-09-28T18:04:05.873Z,1.60
2022-09-28T18:06:33.875Z,1.17
2022-09-28T18:09:02.903Z,1.40
2022-09-28T18:11:30.402Z,1.48
2022-09-28T18:13:57.337Z,1.88
2022-09-28T18:16:24.990Z,1.88
2022-09-28T18:18:52.017Z,2.28
2022-09-28T18:21:19.294Z,1.95
2022-09-28T18:23:46.270Z,1.98
2022-09-28T18:26:16.881Z,1.98
2022-09-28T18:28:43.826Z,1.75
2022-09-28T18:31:13.143Z,1.50
2022-09-28T18:33:40.766Z,1.73
2022-09-28T18:36:08.261Z,1.48
2022-09-28T18:38:35.725Z,1.42
2022-09-28T18:41:10.308Z,1.52
2022-09-28T18:43:37.446Z,1.65
2022-09-28T18:46:10.669Z,1.55
2022-09-28T18:48:37.989Z,1.88
2022-09-28T18:51:08.357Z,1.75
2022-09-28T18:53:36.392Z,1.33
2022-09-28T18:56:08.136Z,1.40
2022-09-28T18:58:38.716Z,1.40
2022-09-28T19:01:35.467Z,1.67
2022-09-28T19:04:06.940Z,1.42
2022-09-28T19:06:34.484Z,1.88
2022-09-28T19:09:01.492Z,1.80
2022-09-28T19:11:28.746Z,1.70
2022-09-28T19:13:55.839Z,1.60
2022-09-28T19:16:28.236Z,1.75
2022-09-28T19:18:58.519Z,1.60
2022-09-28T19:21:25.612Z,1.50
2022-09-28T19:23:55.148Z,1.70
2022-09-28T19:26:23.931Z,1.50
2022-09-28T19:28:50.819Z,1.70
2022-09-28T19:31:18.034Z,2.58
2022-09-28T19:33:48.391Z,1.60
2022-09-28T19:36:18.435Z,1.70
2022-09-28T19:41:39.532Z,1.50
2022-09-28T19:44:25.846Z,1.77
2022-09-28T19:47:10.127Z,1.90
2022-09-28T19:49:38.128Z,2.00
2022-09-28T19:52:13.762Z,1.90
2022-09-28T19:54:57.726Z,1.60
2022-09-28T19:57:29.451Z,1.90
2022-09-28T20:00:01.814Z,2.28
2022-09-28T20:02:32.611Z,2.05
2022-09-28T20:04:59.601Z,2.38
2022-09-28T20:07:26.441Z,2.30
2022-09-28T20:09:53.298Z,2.92
2022-09-28T20:12:20.273Z,2.65
2022-09-28T20:14:47.208Z,2.50
2022-09-28T20:17:14.277Z,3.50
2022-09-28T20:19:41.111Z,2.75
2022-09-28T20:24:43.953Z,2.42
2022-09-28T20:27:10.880Z,2.55
2022-09-28T20:29:37.772Z,2.33
2022-09-28T20:32:04.708Z,2.70
2022-09-28T20:34:33.626Z,2.50
2022-09-28T20:37:00.747Z,2.65
2022-09-28T20:39:27.621Z,2.33
2022-09-28T20:41:55.114Z,2.45
2022-09-28T20:44:22.175Z,2.30
2022-09-28T20:46:52.339Z,2.50
2022-09-28T20:51:46.100Z,2.67
2022-09-28T20:54:13.014Z,3.20
2022-09-28T20:56:39.926Z,3.58
2022-09-28T20:59:11.200Z,3.50
2022-09-28T21:01:38.250Z,2.85
2022-09-28T21:04:05.990Z,2.72
2022-09-28T21:06:37.835Z,2.67
2022-09-28T21:09:05.494Z,2.60
2022-09-28T21:11:33.179Z,2.22
2022-09-28T21:14:01.761Z,2.05
2022-09-28T21:16:29.931Z,3.05
2022-09-28T21:18:56.934Z,2.90
2022-09-28T21:21:24.103Z,2.83
2022-09-28T21:23:54.777Z,2.80
2022-09-28T21:26:26.205Z,3.53
2022-09-28T21:28:57.565Z,2.80
2022-09-28T21:31:28.863Z,2.78
2022-09-28T21:33:57.203Z,3.35
2022-09-28T21:36:24.513Z,2.45
2022-09-28T21:38:51.492Z,3.03
2022-09-28T21:41:18.311Z,3.08
2022-09-28T21:43:45.628Z,3.35
2022-09-28T21:46:12.693Z,2.80
2022-09-28T21:48:39.749Z,3.20
2022-09-28T21:51:07.878Z,2.78
2022-09-28T21:53:36.173Z,2.40
2022-09-28T21:56:04.139Z,2.88
2022-09-28T21:58:32.191Z,2.90
2022-09-28T22:01:15.570Z,3.65
2022-09-28T22:03:44.086Z,2.92
2022-09-28T22:06:11.196Z,2.80
2022-09-28T22:08:38.258Z,3.28
2022-09-28T22:11:12.191Z,3.30
2022-09-28T22:13:44.391Z,3.75
2022-09-28T22:16:11.774Z,3.20
2022-09-28T22:18:39.038Z,3.22
2022-09-28T22:21:14.157Z,3.40
2022-09-28T22:23:41.225Z,3.72
2022-09-28T22:26:20.177Z,3.63
2022-09-28T22:28:48.514Z,2.78
2022-09-28T22:31:16.280Z,3.00
2022-09-28T22:33:43.353Z,3.00
2022-09-28T22:36:10.354Z,3.55
2022-09-28T22:38:37.744Z,3.58
2022-09-28T22:41:04.719Z,3.10
2022-09-28T22:43:32.171Z,2.72
2022-09-28T22:46:06.785Z,3.25
2022-09-28T22:48:34.494Z,3.25
2022-09-28T22:51:02.084Z,3.25
2022-09-28T22:53:29.154Z,2.90
2022-09-28T22:55:56.877Z,2.97
2022-09-28T22:58:23.850Z,3.45
2022-09-28T23:00:50.967Z,3.45
2022-09-28T23:03:18.032Z,3.55
2022-09-28T23:05:54.825Z,3.58
2022-09-28T23:08:22.233Z,3.30
2022-09-28T23:10:49.340Z,3.90
2022-09-28T23:13:16.270Z,3.20
2022-09-28T23:15:43.407Z,3.53
2022-09-28T23:18:10.321Z,3.92
2022-09-28T23:20:37.222Z,3.47
2022-09-28T23:23:04.319Z,3.10
2022-09-28T23:25:31.167Z,4.47
2022-09-28T23:27:58.252Z,3.63
2022-09-28T23:30:25.189Z,3.50
2022-09-28T23:32:53.259Z,3.20
2022-09-28T23:35:20.240Z,3.50
2022-09-28T23:37:50.904Z,3.80
2022-09-28T23:40:18.129Z,3.22
2022-09-28T23:42:44.987Z,3.10
2022-09-28T23:45:11.868Z,3.53
2022-09-28T23:47:38.943Z,3.85
2022-09-28T23:50:06.248Z,3.25
2022-09-28T23:52:33.342Z,3.47
2022-09-28T23:55:00.240Z,3.58
2022-09-28T23:57:27.185Z,3.47
2022-09-28T23:59:54.041Z,2.92
